sensor_id;sensor_type;location;lat;lon;timestamp;temperature;humidity
42031;DHT22;27709;52.036;5.906;2023-01-23T00:01:08;2.70;99.90
42031;DHT22;27709;52.036;5.906;2023-01-23T00:03:33;2.70;99.90
42031;DHT22;27709;52.036;5.906;2023-01-23T00:06:05;2.70;99.90
42031;DHT22;27709;52.036;5.906;2023-01-23T00:08:32;2.70;99.90
42031;DHT22;27709;52.036;5.906;2023-01-23T00:10:58;2.70;99.90
42031;DHT22;27709;52.036;5.906;2023-01-23T00:13:24;2.70;99.90
42031;DHT22;27709;52.036;5.906;2023-01-23T00:15:50;2.70;99.90
42031;DHT22;27709;52.036;5.906;2023-01-23T00:18:15;2.60;99.90
42031;DHT22;27709;52.036;5.906;2023-01-23T00:20:41;2.70;99.90
42031;DHT22;27709;52.036;5.906;2023-01-23T00:23:08;2.60;99.90
42031;DHT22;27709;52.036;5.906;2023-01-23T00:25:35;2.70;99.90
42031;DHT22;27709;52.036;5.906;2023-01-23T00:28:01;2.70;99.90
42031;DHT22;27709;52.036;5.906;2023-01-23T00:30:27;2.70;99.90
42031;DHT22;27709;52.036;5.906;2023-01-23T00:32:52;2.70;99.90
42031;DHT22;27709;52.036;5.906;2023-01-23T00:35:18;2.70;99.90
42031;DHT22;27709;52.036;5.906;2023-01-23T00:37:44;2.70;99.90
42031;DHT22;27709;52.036;5.906;2023-01-23T00:40:10;2.70;99.90
42031;DHT22;27709;52.036;5.906;2023-01-23T00:42:35;2.70;99.90
42031;DHT22;27709;52.036;5.906;2023-01-23T00:45:01;2.70;99.90
42031;DHT22;27709;52.036;5.906;2023-01-23T00:47:27;2.80;99.90
42031;DHT22;27709;52.036;5.906;2023-01-23T00:49:52;2.70;99.90
42031;DHT22;27709;52.036;5.906;2023-01-23T00:52:19;2.70;99.90
42031;DHT22;27709;52.036;5.906;2023-01-23T00:54:45;2.60;99.90
42031;DHT22;27709;52.036;5.906;2023-01-23T00:57:10;2.60;99.90
42031;DHT22;27709;52.036;5.906;2023-01-23T00:59:36;2.60;99.90
42031;DHT22;27709;52.036;5.906;2023-01-23T01:02:02;2.60;99.90
42031;DHT22;27709;52.036;5.906;2023-01-23T01:04:27;2.70;99.90
42031;DHT22;27709;52.036;5.906;2023-01-23T01:06:53;2.70;99.90
42031;DHT22;27709;52.036;5.906;2023-01-23T01:09:19;2.70;99.90
42031;DHT22;27709;52.036;5.906;2023-01-23T01:11:44;2.70;99.90
42031;DHT22;27709;52.036;5.906;2023-01-23T01:14:10;2.70;99.90
42031;DHT22;27709;52.036;5.906;2023-01-23T01:16:36;2.70;99.90
42031;DHT22;27709;52.036;5.906;2023-01-23T01:19:02;2.70;99.90
42031;DHT22;27709;52.036;5.906;2023-01-23T01:21:28;2.70;99.90
42031;DHT22;27709;52.036;5.906;2023-01-23T01:23:54;2.70;99.90
42031;DHT22;27709;52.036;5.906;2023-01-23T01:26:20;2.70;99.90
42031;DHT22;27709;52.036;5.906;2023-01-23T01:28:47;2.70;99.90
42031;DHT22;27709;52.036;5.906;2023-01-23T01:31:14;2.70;99.90
42031;DHT22;27709;52.036;5.906;2023-01-23T01:33:40;2.70;99.90
42031;DHT22;27709;52.036;5.906;2023-01-23T01:36:08;2.70;99.90
42031;DHT22;27709;52.036;5.906;2023-01-23T01:38:34;2.70;99.90
42031;DHT22;27709;52.036;5.906;2023-01-23T01:41:00;2.70;99.90
42031;DHT22;27709;52.036;5.906;2023-01-23T01:43:26;2.70;99.90
42031;DHT22;27709;52.036;5.906;2023-01-23T01:46:11;2.70;99.90
42031;DHT22;27709;52.036;5.906;2023-01-23T01:48:49;2.70;99.90
42031;DHT22;27709;52.036;5.906;2023-01-23T01:56:48;2.70;99.90
42031;DHT22;27709;52.036;5.906;2023-01-23T01:59:15;2.70;99.90
42031;DHT22;27709;52.036;5.906;2023-01-23T02:01:45;2.70;99.90
42031;DHT22;27709;52.036;5.906;2023-01-23T02:04:11;2.70;99.90
42031;DHT22;27709;52.036;5.906;2023-01-23T02:06:37;2.70;99.90
42031;DHT22;27709;52.036;5.906;2023-01-23T02:11:29;2.70;99.90
42031;DHT22;27709;52.036;5.906;2023-01-23T02:13:54;2.70;99.90
42031;DHT22;27709;52.036;5.906;2023-01-23T02:16:25;2.70;99.90
42031;DHT22;27709;52.036;5.906;2023-01-23T02:18:57;2.70;99.90
42031;DHT22;27709;52.036;5.906;2023-01-23T02:21:24;2.70;99.90
42031;DHT22;27709;52.036;5.906;2023-01-23T02:23:55;2.70;99.90
42031;DHT22;27709;52.036;5.906;2023-01-23T02:26:34;2.70;99.90
42031;DHT22;27709;52.036;5.906;2023-01-23T02:29:03;2.80;99.90
42031;DHT22;27709;52.036;5.906;2023-01-23T02:31:29;2.80;99.90
42031;DHT22;27709;52.036;5.906;2023-01-23T02:33:57;2.80;99.90
42031;DHT22;27709;52.036;5.906;2023-01-23T02:36:25;2.80;99.90
42031;DHT22;27709;52.036;5.906;2023-01-23T02:41:35;2.80;99.90
42031;DHT22;27709;52.036;5.906;2023-01-23T02:44:17;2.80;99.90
42031;DHT22;27709;52.036;5.906;2023-01-23T02:46:44;2.80;99.90
42031;DHT22;27709;52.036;5.906;2023-01-23T02:49:10;2.80;99.90
42031;DHT22;27709;52.036;5.906;2023-01-23T02:51:35;2.90;99.90
42031;DHT22;27709;52.036;5.906;2023-01-23T02:54:01;2.90;99.90
42031;DHT22;27709;52.036;5.906;2023-01-23T02:56:27;2.80;99.90
42031;DHT22;27709;52.036;5.906;2023-01-23T02:58:53;2.90;99.90
42031;DHT22;27709;52.036;5.906;2023-01-23T03:01:37;2.80;99.90
42031;DHT22;27709;52.036;5.906;2023-01-23T03:04:03;2.80;99.90
42031;DHT22;27709;52.036;5.906;2023-01-23T03:06:32;2.80;99.90
42031;DHT22;27709;52.036;5.906;2023-01-23T03:09:09;2.80;99.90
42031;DHT22;27709;52.036;5.906;2023-01-23T03:11:37;2.80;99.90
42031;DHT22;27709;52.036;5.906;2023-01-23T03:14:03;2.90;99.90
42031;DHT22;27709;52.036;5.906;2023-01-23T03:16:29;2.90;99.90
42031;DHT22;27709;52.036;5.906;2023-01-23T03:18:55;2.90;99.90
42031;DHT22;27709;52.036;5.906;2023-01-23T03:21:22;2.90;99.90
42031;DHT22;27709;52.036;5.906;2023-01-23T03:23:47;2.90;99.90
42031;DHT22;27709;52.036;5.906;2023-01-23T03:26:14;2.90;99.90
42031;DHT22;27709;52.036;5.906;2023-01-23T03:28:39;2.90;99.90
42031;DHT22;27709;52.036;5.906;2023-01-23T03:31:23;2.90;99.90
42031;DHT22;27709;52.036;5.906;2023-01-23T03:33:49;2.90;99.90
42031;DHT22;27709;52.036;5.906;2023-01-23T03:36:14;3.00;99.90
42031;DHT22;27709;52.036;5.906;2023-01-23T03:38:40;2.90;99.90
42031;DHT22;27709;52.036;5.906;2023-01-23T03:41:26;2.90;99.90
42031;DHT22;27709;52.036;5.906;2023-01-23T03:43:52;3.00;99.90
42031;DHT22;27709;52.036;5.906;2023-01-23T03:46:17;3.00;99.90
42031;DHT22;27709;52.036;5.906;2023-01-23T03:48:43;3.00;99.90
42031;DHT22;27709;52.036;5.906;2023-01-23T03:51:08;3.00;99.90
42031;DHT22;27709;52.036;5.906;2023-01-23T03:53:34;3.00;99.90
42031;DHT22;27709;52.036;5.906;2023-01-23T03:55:59;3.00;99.90
42031;DHT22;27709;52.036;5.906;2023-01-23T03:58:26;3.00;99.90
42031;DHT22;27709;52.036;5.906;2023-01-23T04:00:51;2.90;99.90
42031;DHT22;27709;52.036;5.906;2023-01-23T04:03:17;2.90;99.90
42031;DHT22;27709;52.036;5.906;2023-01-23T04:05:42;2.90;99.90
42031;DHT22;27709;52.036;5.906;2023-01-23T04:08:08;2.90;99.90
42031;DHT22;27709;52.036;5.906;2023-01-23T04:10:33;2.90;99.90
42031;DHT22;27709;52.036;5.906;2023-01-23T04:13:00;2.90;99.90
42031;DHT22;27709;52.036;5.906;2023-01-23T04:15:26;2.90;99.90
42031;DHT22;27709;52.036;5.906;2023-01-23T04:17:51;2.90;99.90
42031;DHT22;27709;52.036;5.906;2023-01-23T04:20:17;2.90;99.90
42031;DHT22;27709;52.036;5.906;2023-01-23T04:22:42;3.00;99.90
42031;DHT22;27709;52.036;5.906;2023-01-23T04:25:08;3.00;99.90
42031;DHT22;27709;52.036;5.906;2023-01-23T04:27:34;3.00;99.90
42031;DHT22;27709;52.036;5.906;2023-01-23T04:30:00;3.00;99.90
42031;DHT22;27709;52.036;5.906;2023-01-23T04:32:25;3.00;99.90
42031;DHT22;27709;52.036;5.906;2023-01-23T04:34:51;3.00;99.90
42031;DHT22;27709;52.036;5.906;2023-01-23T04:37:16;2.90;99.90
42031;DHT22;27709;52.036;5.906;2023-01-23T04:39:42;2.90;99.90
42031;DHT22;27709;52.036;5.906;2023-01-23T04:42:08;2.90;99.90
42031;DHT22;27709;52.036;5.906;2023-01-23T04:44:33;3.00;99.90
42031;DHT22;27709;52.036;5.906;2023-01-23T04:46:59;2.90;99.90
42031;DHT22;27709;52.036;5.906;2023-01-23T04:49:25;2.90;99.90
42031;DHT22;27709;52.036;5.906;2023-01-23T04:51:51;3.00;99.90
42031;DHT22;27709;52.036;5.906;2023-01-23T04:54:18;3.00;99.90
42031;DHT22;27709;52.036;5.906;2023-01-23T04:56:45;3.00;99.90
42031;DHT22;27709;52.036;5.906;2023-01-23T04:59:11;3.00;99.90
42031;DHT22;27709;52.036;5.906;2023-01-23T05:01:36;2.90;99.90
42031;DHT22;27709;52.036;5.906;2023-01-23T05:04:02;2.90;99.90
42031;DHT22;27709;52.036;5.906;2023-01-23T05:06:29;2.90;99.90
42031;DHT22;27709;52.036;5.906;2023-01-23T05:08:54;2.90;99.90
42031;DHT22;27709;52.036;5.906;2023-01-23T05:11:20;3.00;99.90
42031;DHT22;27709;52.036;5.906;2023-01-23T05:13:46;3.00;99.90
42031;DHT22;27709;52.036;5.906;2023-01-23T05:16:12;3.00;99.90
42031;DHT22;27709;52.036;5.906;2023-01-23T05:18:37;3.00;99.90
42031;DHT22;27709;52.036;5.906;2023-01-23T05:21:03;3.00;99.90
42031;DHT22;27709;52.036;5.906;2023-01-23T05:23:29;3.00;99.90
42031;DHT22;27709;52.036;5.906;2023-01-23T05:25:54;3.00;99.90
42031;DHT22;27709;52.036;5.906;2023-01-23T05:28:20;3.00;99.90
42031;DHT22;27709;52.036;5.906;2023-01-23T05:30:45;3.00;99.90
42031;DHT22;27709;52.036;5.906;2023-01-23T05:33:11;3.00;99.90
42031;DHT22;27709;52.036;5.906;2023-01-23T05:35:40;3.00;99.90
42031;DHT22;27709;52.036;5.906;2023-01-23T05:38:06;3.00;99.90
42031;DHT22;27709;52.036;5.906;2023-01-23T05:40:31;3.00;99.90
42031;DHT22;27709;52.036;5.906;2023-01-23T05:42:57;3.00;99.90
42031;DHT22;27709;52.036;5.906;2023-01-23T05:45:22;3.00;99.90
42031;DHT22;27709;52.036;5.906;2023-01-23T05:47:48;3.00;99.90
42031;DHT22;27709;52.036;5.906;2023-01-23T05:50:17;3.00;99.90
42031;DHT22;27709;52.036;5.906;2023-01-23T05:52:43;3.00;99.90
42031;DHT22;27709;52.036;5.906;2023-01-23T05:55:09;3.10;99.90
42031;DHT22;27709;52.036;5.906;2023-01-23T05:57:35;3.00;99.90
42031;DHT22;27709;52.036;5.906;2023-01-23T06:00:00;3.00;99.90
42031;DHT22;27709;52.036;5.906;2023-01-23T06:02:26;3.00;99.90
42031;DHT22;27709;52.036;5.906;2023-01-23T06:04:52;3.00;99.90
42031;DHT22;27709;52.036;5.906;2023-01-23T06:07:18;3.00;99.90
42031;DHT22;27709;52.036;5.906;2023-01-23T06:09:44;3.00;99.90
42031;DHT22;27709;52.036;5.906;2023-01-23T06:12:10;3.00;99.90
42031;DHT22;27709;52.036;5.906;2023-01-23T06:14:36;3.00;99.90
42031;DHT22;27709;52.036;5.906;2023-01-23T06:17:01;3.00;99.90
42031;DHT22;27709;52.036;5.906;2023-01-23T06:19:27;3.00;99.90
42031;DHT22;27709;52.036;5.906;2023-01-23T06:21:53;3.00;99.90
42031;DHT22;27709;52.036;5.906;2023-01-23T06:24:18;2.90;99.90
42031;DHT22;27709;52.036;5.906;2023-01-23T06:26:44;2.90;99.90
42031;DHT22;27709;52.036;5.906;2023-01-23T06:29:09;2.90;99.90
42031;DHT22;27709;52.036;5.906;2023-01-23T06:31:35;2.90;99.90
42031;DHT22;27709;52.036;5.906;2023-01-23T06:34:00;3.00;99.90
42031;DHT22;27709;52.036;5.906;2023-01-23T06:36:26;2.90;99.90
42031;DHT22;27709;52.036;5.906;2023-01-23T06:38:52;3.00;99.90
42031;DHT22;27709;52.036;5.906;2023-01-23T06:41:17;3.00;99.90
42031;DHT22;27709;52.036;5.906;2023-01-23T06:43:43;3.00;99.90
42031;DHT22;27709;52.036;5.906;2023-01-23T06:46:09;3.00;99.90
42031;DHT22;27709;52.036;5.906;2023-01-23T06:48:37;3.00;99.90
42031;DHT22;27709;52.036;5.906;2023-01-23T06:51:03;3.00;99.90
42031;DHT22;27709;52.036;5.906;2023-01-23T06:53:30;3.00;99.90
42031;DHT22;27709;52.036;5.906;2023-01-23T06:56:03;3.00;99.90
42031;DHT22;27709;52.036;5.906;2023-01-23T06:58:30;3.00;99.90
42031;DHT22;27709;52.036;5.906;2023-01-23T07:00:56;3.00;99.90
42031;DHT22;27709;52.036;5.906;2023-01-23T07:03:22;3.00;99.90
42031;DHT22;27709;52.036;5.906;2023-01-23T07:05:47;3.00;99.90
42031;DHT22;27709;52.036;5.906;2023-01-23T07:08:13;3.00;99.90
42031;DHT22;27709;52.036;5.906;2023-01-23T07:10:39;3.00;99.90
42031;DHT22;27709;52.036;5.906;2023-01-23T07:13:06;3.00;99.90
42031;DHT22;27709;52.036;5.906;2023-01-23T07:15:33;3.00;99.90
42031;DHT22;27709;52.036;5.906;2023-01-23T07:17:59;3.00;99.90
42031;DHT22;27709;52.036;5.906;2023-01-23T07:20:25;3.00;99.90
42031;DHT22;27709;52.036;5.906;2023-01-23T07:22:52;3.00;99.90
42031;DHT22;27709;52.036;5.906;2023-01-23T07:25:18;3.00;99.90
42031;DHT22;27709;52.036;5.906;2023-01-23T07:27:44;3.00;99.90
42031;DHT22;27709;52.036;5.906;2023-01-23T07:30:10;3.00;99.90
42031;DHT22;27709;52.036;5.906;2023-01-23T07:32:35;3.10;99.90
42031;DHT22;27709;52.036;5.906;2023-01-23T07:35:01;3.10;99.90
42031;DHT22;27709;52.036;5.906;2023-01-23T07:37:26;3.10;99.90
42031;DHT22;27709;52.036;5.906;2023-01-23T07:39:52;3.10;99.90
42031;DHT22;27709;52.036;5.906;2023-01-23T07:42:18;3.10;99.90
42031;DHT22;27709;52.036;5.906;2023-01-23T07:44:43;3.10;99.90
42031;DHT22;27709;52.036;5.906;2023-01-23T07:47:09;3.10;99.90
42031;DHT22;27709;52.036;5.906;2023-01-23T07:49:34;3.10;99.90
42031;DHT22;27709;52.036;5.906;2023-01-23T07:52:00;3.10;99.90
42031;DHT22;27709;52.036;5.906;2023-01-23T07:54:25;3.10;99.90
42031;DHT22;27709;52.036;5.906;2023-01-23T07:56:51;3.10;99.90
42031;DHT22;27709;52.036;5.906;2023-01-23T07:59:16;3.10;99.90
42031;DHT22;27709;52.036;5.906;2023-01-23T08:01:42;3.10;99.90
42031;DHT22;27709;52.036;5.906;2023-01-23T08:04:08;3.10;99.90
42031;DHT22;27709;52.036;5.906;2023-01-23T08:06:33;3.10;99.90
42031;DHT22;27709;52.036;5.906;2023-01-23T08:08:59;3.20;99.90
42031;DHT22;27709;52.036;5.906;2023-01-23T08:11:24;3.20;99.90
42031;DHT22;27709;52.036;5.906;2023-01-23T08:13:53;3.20;99.90
42031;DHT22;27709;52.036;5.906;2023-01-23T08:16:18;3.20;99.90
42031;DHT22;27709;52.036;5.906;2023-01-23T08:18:44;3.20;99.90
42031;DHT22;27709;52.036;5.906;2023-01-23T08:21:09;3.20;99.90
42031;DHT22;27709;52.036;5.906;2023-01-23T08:23:35;3.30;99.90
42031;DHT22;27709;52.036;5.906;2023-01-23T08:26:03;3.20;99.90
42031;DHT22;27709;52.036;5.906;2023-01-23T08:28:29;3.30;99.90
42031;DHT22;27709;52.036;5.906;2023-01-23T08:30:59;3.30;99.90
42031;DHT22;27709;52.036;5.906;2023-01-23T08:33:25;3.30;99.90
42031;DHT22;27709;52.036;5.906;2023-01-23T08:35:53;3.30;99.90
42031;DHT22;27709;52.036;5.906;2023-01-23T08:38:20;3.30;99.90
42031;DHT22;27709;52.036;5.906;2023-01-23T08:40:46;3.30;99.90
42031;DHT22;27709;52.036;5.906;2023-01-23T08:43:13;3.30;99.90
42031;DHT22;27709;52.036;5.906;2023-01-23T08:45:51;3.30;99.90
42031;DHT22;27709;52.036;5.906;2023-01-23T08:48:21;3.40;99.90
42031;DHT22;27709;52.036;5.906;2023-01-23T08:50:47;3.40;99.90
42031;DHT22;27709;52.036;5.906;2023-01-23T08:53:13;3.40;99.90
42031;DHT22;27709;52.036;5.906;2023-01-23T08:55:39;3.40;99.90
42031;DHT22;27709;52.036;5.906;2023-01-23T08:58:06;3.40;99.90
42031;DHT22;27709;52.036;5.906;2023-01-23T09:00:32;3.40;99.90
42031;DHT22;27709;52.036;5.906;2023-01-23T09:03:01;3.40;99.90
42031;DHT22;27709;52.036;5.906;2023-01-23T09:05:28;3.50;99.90
42031;DHT22;27709;52.036;5.906;2023-01-23T09:07:55;3.50;99.90
42031;DHT22;27709;52.036;5.906;2023-01-23T09:10:21;3.50;99.90
42031;DHT22;27709;52.036;5.906;2023-01-23T09:12:46;3.60;99.90
42031;DHT22;27709;52.036;5.906;2023-01-23T09:15:12;3.60;99.90
42031;DHT22;27709;52.036;5.906;2023-01-23T09:17:37;3.60;99.90
42031;DHT22;27709;52.036;5.906;2023-01-23T09:20:03;3.60;99.90
42031;DHT22;27709;52.036;5.906;2023-01-23T09:22:31;3.70;99.90
42031;DHT22;27709;52.036;5.906;2023-01-23T09:24:57;3.70;99.90
42031;DHT22;27709;52.036;5.906;2023-01-23T09:27:22;3.70;99.90
42031;DHT22;27709;52.036;5.906;2023-01-23T09:29:49;3.70;99.90
42031;DHT22;27709;52.036;5.906;2023-01-23T09:32:15;3.70;99.90
42031;DHT22;27709;52.036;5.906;2023-01-23T09:34:41;3.70;99.90
42031;DHT22;27709;52.036;5.906;2023-01-23T09:37:07;3.80;99.90
42031;DHT22;27709;52.036;5.906;2023-01-23T09:39:32;3.80;99.90
42031;DHT22;27709;52.036;5.906;2023-01-23T09:42:02;3.80;99.90
42031;DHT22;27709;52.036;5.906;2023-01-23T09:44:44;3.80;99.90
42031;DHT22;27709;52.036;5.906;2023-01-23T09:47:16;3.80;99.90
42031;DHT22;27709;52.036;5.906;2023-01-23T09:49:48;3.80;99.90
42031;DHT22;27709;52.036;5.906;2023-01-23T09:52:20;3.80;99.90
42031;DHT22;27709;52.036;5.906;2023-01-23T09:54:57;3.80;99.90
42031;DHT22;27709;52.036;5.906;2023-01-23T09:57:35;3.80;99.90
42031;DHT22;27709;52.036;5.906;2023-01-23T10:00:25;3.90;99.90
42031;DHT22;27709;52.036;5.906;2023-01-23T10:02:52;4.00;99.90
42031;DHT22;27709;52.036;5.906;2023-01-23T10:05:24;4.00;99.90
42031;DHT22;27709;52.036;5.906;2023-01-23T10:08:20;4.00;99.90
42031;DHT22;27709;52.036;5.906;2023-01-23T10:11:05;4.00;99.90
42031;DHT22;27709;52.036;5.906;2023-01-23T10:13:53;4.10;99.90
42031;DHT22;27709;52.036;5.906;2023-01-23T10:16:44;4.10;99.90
42031;DHT22;27709;52.036;5.906;2023-01-23T10:22:08;4.10;99.90
42031;DHT22;27709;52.036;5.906;2023-01-23T10:24:49;4.10;99.90
42031;DHT22;27709;52.036;5.906;2023-01-23T10:27:22;4.20;99.90
42031;DHT22;27709;52.036;5.906;2023-01-23T10:29:59;4.30;99.90
42031;DHT22;27709;52.036;5.906;2023-01-23T10:32:29;4.40;99.90
42031;DHT22;27709;52.036;5.906;2023-01-23T10:35:27;4.50;99.90
42031;DHT22;27709;52.036;5.906;2023-01-23T10:38:11;4.60;99.90
42031;DHT22;27709;52.036;5.906;2023-01-23T10:40:40;4.70;99.90
42031;DHT22;27709;52.036;5.906;2023-01-23T10:43:25;4.70;99.90
42031;DHT22;27709;52.036;5.906;2023-01-23T10:45:51;4.70;99.90
42031;DHT22;27709;52.036;5.906;2023-01-23T10:48:38;4.80;99.90
42031;DHT22;27709;52.036;5.906;2023-01-23T10:56:51;4.70;99.90
42031;DHT22;27709;52.036;5.906;2023-01-23T11:01:54;4.60;99.90
42031;DHT22;27709;52.036;5.906;2023-01-23T11:04:23;4.60;99.90
42031;DHT22;27709;52.036;5.906;2023-01-23T11:07:01;4.50;99.90
42031;DHT22;27709;52.036;5.906;2023-01-23T11:09:27;4.50;99.90
42031;DHT22;27709;52.036;5.906;2023-01-23T11:12:05;4.60;99.90
42031;DHT22;27709;52.036;5.906;2023-01-23T11:14:31;4.50;99.90
42031;DHT22;27709;52.036;5.906;2023-01-23T11:17:03;4.60;99.90
42031;DHT22;27709;52.036;5.906;2023-01-23T11:19:36;4.60;99.90
42031;DHT22;27709;52.036;5.906;2023-01-23T11:22:03;4.70;99.90
42031;DHT22;27709;52.036;5.906;2023-01-23T11:24:36;4.70;99.90
42031;DHT22;27709;52.036;5.906;2023-01-23T11:27:18;4.80;99.90
42031;DHT22;27709;52.036;5.906;2023-01-23T11:29:52;4.80;99.90
42031;DHT22;27709;52.036;5.906;2023-01-23T11:32:20;4.80;99.90
42031;DHT22;27709;52.036;5.906;2023-01-23T11:34:49;4.80;99.90
42031;DHT22;27709;52.036;5.906;2023-01-23T11:37:35;4.80;99.90
42031;DHT22;27709;52.036;5.906;2023-01-23T11:40:16;4.70;99.90
42031;DHT22;27709;52.036;5.906;2023-01-23T11:42:43;4.70;99.90
42031;DHT22;27709;52.036;5.906;2023-01-23T11:45:32;4.70;99.90
42031;DHT22;27709;52.036;5.906;2023-01-23T11:54:01;4.70;99.90
42031;DHT22;27709;52.036;5.906;2023-01-23T11:56:42;4.70;99.90
42031;DHT22;27709;52.036;5.906;2023-01-23T12:02:11;4.80;99.90
42031;DHT22;27709;52.036;5.906;2023-01-23T12:07:25;4.90;99.90
42031;DHT22;27709;52.036;5.906;2023-01-23T12:12:46;4.90;99.90
42031;DHT22;27709;52.036;5.906;2023-01-23T12:18:45;4.90;99.90
42031;DHT22;27709;52.036;5.906;2023-01-23T12:21:37;4.90;99.90
42031;DHT22;27709;52.036;5.906;2023-01-23T12:27:00;5.00;99.90
42031;DHT22;27709;52.036;5.906;2023-01-23T12:35:51;5.10;99.90
42031;DHT22;27709;52.036;5.906;2023-01-23T12:38:42;5.10;99.90
42031;DHT22;27709;52.036;5.906;2023-01-23T12:41:28;5.20;99.90
42031;DHT22;27709;52.036;5.906;2023-01-23T12:46:57;5.20;99.90
42031;DHT22;27709;52.036;5.906;2023-01-23T12:49:43;5.20;99.90
42031;DHT22;27709;52.036;5.906;2023-01-23T12:52:24;5.30;99.90
42031;DHT22;27709;52.036;5.906;2023-01-23T12:55:19;5.30;99.90
42031;DHT22;27709;52.036;5.906;2023-01-23T12:57:47;5.20;99.90
42031;DHT22;27709;52.036;5.906;2023-01-23T13:03:33;5.20;99.90
42031;DHT22;27709;52.036;5.906;2023-01-23T13:11:32;5.10;99.90
42031;DHT22;27709;52.036;5.906;2023-01-23T13:14:15;5.10;99.90
42031;DHT22;27709;52.036;5.906;2023-01-23T13:16:45;5.10;99.90
42031;DHT22;27709;52.036;5.906;2023-01-23T13:19:26;5.20;99.90
42031;DHT22;27709;52.036;5.906;2023-01-23T13:27:53;5.20;99.90
42031;DHT22;27709;52.036;5.906;2023-01-23T13:32:49;5.20;99.90
42031;DHT22;27709;52.036;5.906;2023-01-23T13:52:00;4.90;99.90
42031;DHT22;27709;52.036;5.906;2023-01-23T13:54:48;4.80;99.90
42031;DHT22;27709;52.036;5.906;2023-01-23T13:57:32;4.80;99.90
42031;DHT22;27709;52.036;5.906;2023-01-23T13:59:58;4.80;99.90
42031;DHT22;27709;52.036;5.906;2023-01-23T14:02:40;4.80;99.90
42031;DHT22;27709;52.036;5.906;2023-01-23T14:05:29;4.80;99.90
42031;DHT22;27709;52.036;5.906;2023-01-23T14:08:01;4.70;99.90
42031;DHT22;27709;52.036;5.906;2023-01-23T14:10:33;4.70;99.90
42031;DHT22;27709;52.036;5.906;2023-01-23T14:15:31;4.80;99.90
42031;DHT22;27709;52.036;5.906;2023-01-23T14:20:46;4.80;99.90
42031;DHT22;27709;52.036;5.906;2023-01-23T14:23:34;4.70;99.90
42031;DHT22;27709;52.036;5.906;2023-01-23T14:26:03;4.70;99.90
42031;DHT22;27709;52.036;5.906;2023-01-23T14:28:29;4.70;99.90
42031;DHT22;27709;52.036;5.906;2023-01-23T14:31:00;4.70;99.90
42031;DHT22;27709;52.036;5.906;2023-01-23T14:33:27;4.70;99.90
42031;DHT22;27709;52.036;5.906;2023-01-23T14:35:54;4.70;99.90
42031;DHT22;27709;52.036;5.906;2023-01-23T14:38:28;4.60;99.90
42031;DHT22;27709;52.036;5.906;2023-01-23T14:40:54;4.60;99.90
42031;DHT22;27709;52.036;5.906;2023-01-23T14:43:21;4.60;99.90
42031;DHT22;27709;52.036;5.906;2023-01-23T14:45:53;4.60;99.90
42031;DHT22;27709;52.036;5.906;2023-01-23T14:48:21;4.60;99.90
42031;DHT22;27709;52.036;5.906;2023-01-23T14:50:46;4.50;99.90
42031;DHT22;27709;52.036;5.906;2023-01-23T14:53:14;4.50;99.90
42031;DHT22;27709;52.036;5.906;2023-01-23T14:55:43;4.40;99.90
42031;DHT22;27709;52.036;5.906;2023-01-23T14:58:29;4.40;99.90
42031;DHT22;27709;52.036;5.906;2023-01-23T15:01:00;4.40;99.90
42031;DHT22;27709;52.036;5.906;2023-01-23T15:03:40;4.30;99.90
42031;DHT22;27709;52.036;5.906;2023-01-23T15:06:14;4.30;99.90
42031;DHT22;27709;52.036;5.906;2023-01-23T15:08:43;4.30;99.90
42031;DHT22;27709;52.036;5.906;2023-01-23T15:11:10;4.30;99.90
42031;DHT22;27709;52.036;5.906;2023-01-23T15:13:43;4.30;99.90
42031;DHT22;27709;52.036;5.906;2023-01-23T15:16:22;4.20;99.90
42031;DHT22;27709;52.036;5.906;2023-01-23T15:19:20;4.20;99.90
42031;DHT22;27709;52.036;5.906;2023-01-23T15:21:47;4.30;99.90
42031;DHT22;27709;52.036;5.906;2023-01-23T15:26:40;4.20;99.90
42031;DHT22;27709;52.036;5.906;2023-01-23T15:36:56;4.30;99.90
42031;DHT22;27709;52.036;5.906;2023-01-23T15:41:57;4.30;99.90
42031;DHT22;27709;52.036;5.906;2023-01-23T15:44:26;4.30;99.90
42031;DHT22;27709;52.036;5.906;2023-01-23T15:46:52;4.30;99.90
42031;DHT22;27709;52.036;5.906;2023-01-23T15:49:17;4.40;99.90
42031;DHT22;27709;52.036;5.906;2023-01-23T15:51:43;4.40;99.90
42031;DHT22;27709;52.036;5.906;2023-01-23T15:54:27;4.40;99.90
42031;DHT22;27709;52.036;5.906;2023-01-23T15:56:55;4.40;99.90
42031;DHT22;27709;52.036;5.906;2023-01-23T15:59:20;4.40;99.90
42031;DHT22;27709;52.036;5.906;2023-01-23T16:01:46;4.40;99.90
42031;DHT22;27709;52.036;5.906;2023-01-23T16:04:11;4.40;99.90
42031;DHT22;27709;52.036;5.906;2023-01-23T16:06:37;4.40;99.90
42031;DHT22;27709;52.036;5.906;2023-01-23T16:09:03;4.40;99.90
42031;DHT22;27709;52.036;5.906;2023-01-23T16:11:33;4.40;99.90
42031;DHT22;27709;52.036;5.906;2023-01-23T16:13:59;4.40;99.90
42031;DHT22;27709;52.036;5.906;2023-01-23T16:16:26;4.30;99.90
42031;DHT22;27709;52.036;5.906;2023-01-23T16:18:52;4.30;99.90
42031;DHT22;27709;52.036;5.906;2023-01-23T16:21:18;4.40;99.90
42031;DHT22;27709;52.036;5.906;2023-01-23T16:23:45;4.40;99.90
42031;DHT22;27709;52.036;5.906;2023-01-23T16:26:20;4.30;99.90
42031;DHT22;27709;52.036;5.906;2023-01-23T16:28:46;4.30;99.90
42031;DHT22;27709;52.036;5.906;2023-01-23T16:31:12;4.30;99.90
42031;DHT22;27709;52.036;5.906;2023-01-23T16:33:38;4.30;99.90
42031;DHT22;27709;52.036;5.906;2023-01-23T16:36:06;4.30;99.90
42031;DHT22;27709;52.036;5.906;2023-01-23T16:38:35;4.30;99.90
42031;DHT22;27709;52.036;5.906;2023-01-23T16:41:00;4.30;99.90
42031;DHT22;27709;52.036;5.906;2023-01-23T16:43:26;4.30;99.90
42031;DHT22;27709;52.036;5.906;2023-01-23T16:45:52;4.30;99.90
42031;DHT22;27709;52.036;5.906;2023-01-23T16:48:18;4.30;99.90
42031;DHT22;27709;52.036;5.906;2023-01-23T16:50:47;4.30;99.90
42031;DHT22;27709;52.036;5.906;2023-01-23T16:53:24;4.30;99.90
42031;DHT22;27709;52.036;5.906;2023-01-23T16:55:50;4.30;99.90
42031;DHT22;27709;52.036;5.906;2023-01-23T16:58:20;4.20;99.90
42031;DHT22;27709;52.036;5.906;2023-01-23T17:00:46;4.30;99.90
42031;DHT22;27709;52.036;5.906;2023-01-23T17:03:20;4.20;99.90
42031;DHT22;27709;52.036;5.906;2023-01-23T17:05:46;4.30;99.90
42031;DHT22;27709;52.036;5.906;2023-01-23T17:08:23;4.30;99.90
42031;DHT22;27709;52.036;5.906;2023-01-23T17:10:58;4.20;99.90
42031;DHT22;27709;52.036;5.906;2023-01-23T17:13:25;4.20;99.90
42031;DHT22;27709;52.036;5.906;2023-01-23T17:15:52;4.20;99.90
42031;DHT22;27709;52.036;5.906;2023-01-23T17:18:22;4.20;99.90
42031;DHT22;27709;52.036;5.906;2023-01-23T17:20:49;4.20;99.90
42031;DHT22;27709;52.036;5.906;2023-01-23T17:23:15;4.20;99.90
42031;DHT22;27709;52.036;5.906;2023-01-23T17:25:40;4.20;99.90
42031;DHT22;27709;52.036;5.906;2023-01-23T17:28:14;4.20;99.90
42031;DHT22;27709;52.036;5.906;2023-01-23T17:30:41;4.20;99.90
42031;DHT22;27709;52.036;5.906;2023-01-23T17:33:22;4.20;99.90
42031;DHT22;27709;52.036;5.906;2023-01-23T17:35:48;4.20;99.90
42031;DHT22;27709;52.036;5.906;2023-01-23T17:38:23;4.20;99.90
42031;DHT22;27709;52.036;5.906;2023-01-23T17:40:50;4.20;99.90